Time;durP1;ratioP1;P1;durP2;ratioP2;P2;SDS_P1;SDS_P2;PMS_P1;PMS_P2;Temp;Humidity;BMP_temperature;BMP_pressure;BME280_temperature;BME280_humidity;BME280_pressure;Samples;Min_cycle;Max_cycle;Signal;HPM_P1;HPM_P2
2023/03/07 00:02:16;;;;;;;11.85;6.43;;;;;;;8.21;52.78;93145.72;5065099;28;20056;-81
2023/03/07 00:04:45;;;;;;;13.48;7.00;;;;;;;8.25;52.92;93148.53;5065014;28;20028;-81
2023/03/07 00:07:11;;;;;;;12.75;6.05;;;;;;;8.18;52.47;93135.75;5064599;28;20343;-80
2023/03/07 00:09:36;;;;;;;13.35;5.22;;;;;;;8.22;52.23;93144.66;5064752;28;20047;-81
2023/03/07 00:12:06;;;;;;;17.10;6.15;;;;;;;8.24;51.99;93142.47;5064921;28;20036;-81
2023/03/07 00:14:32;;;;;;;12.57;5.95;;;;;;;8.27;52.17;93134.97;5064716;28;20035;-80
2023/03/07 00:16:57;;;;;;;13.27;6.10;;;;;;;8.20;52.08;93127.44;5064755;28;20309;-81
2023/03/07 00:19:23;;;;;;;10.48;5.03;;;;;;;8.28;52.34;93115.25;5064657;28;20307;-80
2023/03/07 00:21:48;;;;;;;12.73;4.88;;;;;;;8.28;51.82;93123.22;5065002;28;20021;-81
2023/03/07 00:24:14;;;;;;;11.38;5.82;;;;;;;8.33;51.24;93107.13;5064684;28;20219;-81
2023/03/07 00:26:39;;;;;;;7.13;4.00;;;;;;;8.39;50.21;93090.72;5064579;28;20036;-81
2023/03/07 00:29:07;;;;;;;11.93;5.57;;;;;;;8.45;50.62;93120.56;5064434;28;20029;-81
2023/03/07 00:31:33;;;;;;;8.00;4.40;;;;;;;8.48;49.22;93101.31;5064448;28;20028;-81
2023/03/07 00:33:58;;;;;;;9.07;4.38;;;;;;;8.47;49.15;93083.84;5064670;28;20031;-80
2023/03/07 00:36:24;;;;;;;7.25;3.75;;;;;;;8.47;49.21;93109.59;5064468;28;20238;-81
2023/03/07 00:38:50;;;;;;;10.23;5.70;;;;;;;8.42;50.12;93099.94;5064512;28;20051;-81
2023/03/07 00:41:21;;;;;;;12.55;5.70;;;;;;;8.37;50.17;93102.75;5063153;28;20074;-81
2023/03/07 00:43:47;;;;;;;18.35;6.63;;;;;;;8.36;50.51;93093.22;5064346;28;20022;-81
2023/03/07 00:46:14;;;;;;;9.90;5.00;;;;;;;8.36;49.90;93106.50;5064204;28;20088;-82
2023/03/07 00:48:40;;;;;;;10.80;3.80;;;;;;;8.39;48.98;93084.63;5064109;28;20052;-81
2023/03/07 00:51:08;;;;;;;8.68;3.17;;;;;;;8.47;47.32;93094.47;5063821;28;20257;-81
2023/03/07 00:53:34;;;;;;;8.20;4.30;;;;;;;8.54;47.81;93078.81;5063606;28;20086;-81
2023/03/07 00:56:01;;;;;;;10.35;4.78;;;;;;;8.59;47.79;93102.56;5064126;28;20027;-81
2023/03/07 00:58:28;;;;;;;9.90;3.47;;;;;;;8.53;46.96;93105.69;5063932;28;20055;-81
2023/03/07 01:00:54;;;;;;;8.60;3.72;;;;;;;8.59;47.01;93094.59;5063699;28;20321;-81
2023/03/07 01:03:20;;;;;;;10.52;3.28;;;;;;;8.67;46.37;93085.03;5064371;28;20017;-82
2023/03/07 01:05:46;;;;;;;5.88;3.25;;;;;;;8.68;46.39;93070.63;5064460;28;20096;-81
2023/03/07 01:08:12;;;;;;;11.43;5.22;;;;;;;8.72;48.21;93097.34;5064526;28;20063;-82
2023/03/07 01:10:38;;;;;;;21.05;7.78;;;;;;;8.65;50.16;93095.19;5063928;28;20386;-81
2023/03/07 01:13:04;;;;;;;7.88;3.08;;;;;;;8.46;47.83;93092.13;5063931;28;20029;-81
2023/03/07 01:15:29;;;;;;;11.15;5.93;;;;;;;8.27;48.00;93079.22;5063838;28;20016;-79
2023/03/07 01:17:55;;;;;;;14.68;6.63;;;;;;;8.17;51.23;93078.44;5063853;28;20334;-80
2023/03/07 01:20:20;;;;;;;11.52;4.57;;;;;;;8.01;49.95;93077.38;5063932;28;20013;-80
2023/03/07 01:22:46;;;;;;;13.48;5.25;;;;;;;7.94;50.24;93085.06;5063537;28;20040;-80
2023/03/07 01:25:12;;;;;;;16.63;8.20;;;;;;;7.95;52.20;93074.09;5063801;28;20028;-80
2023/03/07 01:27:38;;;;;;;17.63;7.82;;;;;;;7.89;52.63;93071.94;5063577;28;20017;-81
2023/03/07 01:30:04;;;;;;;16.20;7.15;;;;;;;7.82;53.13;93070.56;5063241;28;20025;-79
2023/03/07 01:32:30;;;;;;;14.38;7.30;;;;;;;7.79;53.18;93073.03;5063228;28;20095;-79
2023/03/07 01:34:55;;;;;;;16.08;8.18;;;;;;;7.77;53.46;93076.00;5063375;28;20017;-79
2023/03/07 01:37:21;;;;;;;17.20;6.55;;;;;;;7.72;53.73;93072.75;5063528;28;20131;-79
2023/03/07 01:39:50;;;;;;;15.30;8.20;;;;;;;7.64;53.99;93061.81;5063441;28;20088;-80
2023/03/07 01:42:15;;;;;;;13.70;6.60;;;;;;;7.63;54.28;93068.25;5063114;28;20044;-80
2023/03/07 01:44:57;;;;;;;15.55;6.78;;;;;;;7.62;54.57;93065.88;5062982;28;20358;-80
2023/03/07 01:47:23;;;;;;;18.35;7.88;;;;;;;7.58;55.02;93059.66;5062945;28;20135;-80
2023/03/07 01:49:48;;;;;;;19.58;7.22;;;;;;;7.59;55.03;93064.66;5063165;28;20033;-80
2023/03/07 01:52:22;;;;;;;16.80;6.28;;;;;;;7.55;55.05;93065.56;5063004;28;20311;-80
2023/03/07 01:54:52;;;;;;;14.75;6.72;;;;;;;7.56;55.00;93059.19;5063074;28;20254;-80
2023/03/07 01:57:20;;;;;;;11.93;5.93;;;;;;;7.55;55.09;93063.72;5063090;28;20028;-80
2023/03/07 01:59:49;;;;;;;14.65;6.60;;;;;;;7.56;55.08;93061.84;5062768;28;20299;-80
2023/03/07 02:02:18;;;;;;;14.55;6.20;;;;;;;7.51;54.98;93076.03;5062942;28;20079;-80
2023/03/07 02:04:53;;;;;;;17.25;6.28;;;;;;;7.53;55.04;93068.56;5061955;28;20024;-80
2023/03/07 02:07:22;;;;;;;16.55;7.15;;;;;;;7.54;54.74;93080.72;5062937;28;20060;-80
2023/03/07 02:09:49;;;;;;;12.35;6.05;;;;;;;7.47;54.92;93055.75;5062838;28;20063;-80
2023/03/07 02:12:15;;;;;;;14.82;6.18;;;;;;;7.49;55.08;93070.28;5062713;28;20020;-80
2023/03/07 02:14:47;;;;;;;12.02;6.30;;;;;;;7.54;54.96;93074.63;5062719;28;20085;-80
2023/03/07 02:17:12;;;;;;;11.73;6.88;;;;;;;7.55;54.83;93073.53;5062660;28;20227;-80
2023/03/07 02:19:49;;;;;;;15.65;6.68;;;;;;;7.56;54.66;93067.91;5062734;28;20036;-79
2023/03/07 02:22:17;;;;;;;11.27;6.00;;;;;;;7.54;54.29;93085.25;5062622;28;20029;-80
2023/03/07 02:24:51;;;;;;;11.32;5.63;;;;;;;7.49;54.56;93050.91;5062573;28;20025;-79
2023/03/07 02:27:17;;;;;;;14.85;6.68;;;;;;;7.51;54.50;93068.09;5062808;28;20025;-81
2023/03/07 02:29:42;;;;;;;15.27;6.28;;;;;;;7.51;54.43;93060.13;5062553;28;20040;-79
2023/03/07 02:32:09;;;;;;;15.68;6.53;;;;;;;7.46;54.68;93068.22;5062460;28;20063;-80
2023/03/07 02:34:34;;;;;;;15.85;5.88;;;;;;;7.43;54.59;93076.81;5062443;28;20368;-80
2023/03/07 02:37:05;;;;;;;11.18;6.55;;;;;;;7.40;54.59;93066.81;5062394;28;20104;-81
2023/03/07 02:39:31;;;;;;;14.68;6.47;;;;;;;7.34;54.84;93068.06;5062455;28;20021;-80
2023/03/07 02:42:08;;;;;;;15.00;6.63;;;;;;;7.36;54.75;93071.19;5062419;28;20346;-80
2023/03/07 02:44:34;;;;;;;13.43;6.85;;;;;;;7.37;54.87;93072.78;5062372;28;20025;-80
2023/03/07 02:46:59;;;;;;;12.70;6.53;;;;;;;7.41;54.88;93077.13;5062331;28;20055;-80
2023/03/07 02:49:25;;;;;;;11.93;5.95;;;;;;;7.40;54.94;93075.56;5062160;28;20040;-80
2023/03/07 02:51:50;;;;;;;12.23;6.35;;;;;;;7.41;54.71;93074.47;5062551;28;20025;-79
2023/03/07 02:54:16;;;;;;;12.02;6.10;;;;;;;7.41;54.51;93061.22;5062138;28;20031;-79
2023/03/07 02:56:41;;;;;;;15.02;5.72;;;;;;;7.44;54.62;93065.88;5062387;28;20025;-81
2023/03/07 02:59:06;;;;;;;11.88;5.78;;;;;;;7.46;54.63;93059.50;5062239;28;20031;-82
2023/03/07 03:01:32;;;;;;;12.27;5.85;;;;;;;7.46;54.43;93059.50;5062290;28;20366;-81
2023/03/07 03:03:57;;;;;;;15.05;6.13;;;;;;;7.48;54.38;93068.69;5062319;28;20021;-81
2023/03/07 03:06:23;;;;;;;11.68;5.70;;;;;;;7.53;54.43;93057.16;5062207;28;20040;-81
2023/03/07 03:08:48;;;;;;;11.40;5.45;;;;;;;7.55;54.23;93053.13;5062358;28;20216;-81
2023/03/07 03:11:14;;;;;;;10.45;5.30;;;;;;;7.55;53.91;93063.72;5062274;28;20280;-81
2023/03/07 03:13:39;;;;;;;14.73;5.82;;;;;;;7.54;54.11;93056.06;5062297;28;20219;-81
2023/03/07 03:16:05;;;;;;;12.70;5.55;;;;;;;7.61;53.39;93061.66;5061735;28;20305;-81
2023/03/07 03:18:31;;;;;;;9.75;5.50;;;;;;;7.70;52.56;93053.72;5065953;28;20037;-81
2023/03/07 03:20:56;;;;;;;13.05;5.32;;;;;;;7.69;52.98;93049.50;5065733;28;20039;-81
2023/03/07 03:23:25;;;;;;;13.27;5.20;;;;;;;7.72;52.98;93065.56;5065891;28;20054;-80
2023/03/07 03:26:01;;;;;;;12.10;5.05;;;;;;;7.70;53.55;93043.13;5065876;28;20044;-81
2023/03/07 03:28:27;;;;;;;13.68;6.25;;;;;;;7.71;53.57;93058.69;5065841;28;20252;-80
2023/03/07 03:30:58;;;;;;;7.82;4.97;;;;;;;7.68;53.67;93048.72;5065674;28;20247;-80
2023/03/07 03:33:23;;;;;;;14.65;5.05;;;;;;;7.73;53.45;93056.50;5064382;28;20032;-80
2023/03/07 03:35:49;;;;;;;12.32;4.70;;;;;;;7.75;53.14;93054.31;5065522;28;20219;-80
2023/03/07 03:38:15;;;;;;;10.45;4.95;;;;;;;7.79;52.66;93047.28;5065521;28;20051;-80
2023/03/07 03:40:40;;;;;;;10.63;4.90;;;;;;;7.83;52.85;93055.41;5065615;28;20251;-80
2023/03/07 03:43:05;;;;;;;12.70;4.57;;;;;;;7.87;52.65;93060.88;5065248;28;20021;-80
2023/03/07 03:45:31;;;;;;;9.43;4.78;;;;;;;7.92;52.57;93066.03;5065331;28;20020;-81
2023/03/07 03:47:56;;;;;;;8.27;4.82;;;;;;;7.96;52.56;93074.91;5065291;28;20343;-81
2023/03/07 03:50:22;;;;;;;13.05;5.07;;;;;;;7.98;52.56;93070.84;5065176;28;20029;-82
2023/03/07 03:52:47;;;;;;;12.68;5.78;;;;;;;8.01;52.68;93069.41;5065517;28;20021;-83
2023/03/07 03:55:13;;;;;;;13.93;6.50;;;;;;;8.02;52.97;93076.31;5065374;28;20062;-80
2023/03/07 03:57:38;;;;;;;11.23;5.55;;;;;;;8.01;53.35;93061.47;5064995;28;20040;-79
2023/03/07 04:00:05;;;;;;;13.18;5.32;;;;;;;8.01;53.21;93075.50;5065158;28;20024;-81
2023/03/07 04:02:32;;;;;;;10.80;5.90;;;;;;;7.98;53.39;93086.00;5065096;28;20312;-80
2023/03/07 04:04:57;;;;;;;14.95;6.15;;;;;;;7.96;53.76;93069.59;5065055;28;20338;-80
2023/03/07 04:07:24;;;;;;;11.13;5.90;;;;;;;7.97;53.67;93073.81;5064939;28;20021;-80
2023/03/07 04:09:49;;;;;;;13.93;6.13;;;;;;;7.94;53.79;93069.13;5065166;28;20017;-80
2023/03/07 04:12:14;;;;;;;10.40;5.68;;;;;;;7.92;53.74;93072.09;5064865;28;20399;-82
2023/03/07 04:14:40;;;;;;;20.17;6.07;;;;;;;7.94;54.14;93064.59;5064932;28;20017;-82
2023/03/07 04:17:06;;;;;;;14.98;6.38;;;;;;;7.94;54.20;93077.88;5064913;28;20028;-81
2023/03/07 04:19:31;;;;;;;10.90;6.35;;;;;;;7.91;54.48;93080.38;5064577;28;20032;-82
2023/03/07 04:21:57;;;;;;;13.18;6.90;;;;;;;7.84;54.39;93076.31;5064835;28;20092;-81
2023/03/07 04:24:22;;;;;;;13.18;6.97;;;;;;;7.83;54.68;93079.28;5064640;28;20033;-81
2023/03/07 04:26:48;;;;;;;14.18;6.35;;;;;;;7.80;54.66;93078.03;5063654;28;20082;-81
2023/03/07 04:29:13;;;;;;;12.52;6.25;;;;;;;7.78;54.73;93076.81;5063535;28;20036;-81
2023/03/07 04:31:39;;;;;;;19.17;7.05;;;;;;;7.76;54.91;93084.28;5064441;28;20196;-81
2023/03/07 04:34:04;;;;;;;12.77;6.65;;;;;;;7.72;55.05;93084.13;5064612;28;20020;-81
2023/03/07 04:36:29;;;;;;;11.02;5.68;;;;;;;7.72;54.98;93092.09;5064396;28;20028;-81
2023/03/07 04:38:55;;;;;;;14.95;6.10;;;;;;;7.71;55.20;93089.75;5064391;28;20021;-81
2023/03/07 04:41:24;;;;;;;14.15;6.63;;;;;;;7.72;55.10;93105.34;5064447;28;20017;-82
2023/03/07 04:43:50;;;;;;;16.67;7.35;;;;;;;7.70;55.30;93091.63;5064372;28;20025;-81
2023/03/07 04:46:17;;;;;;;12.73;6.57;;;;;;;7.71;55.37;93093.16;5064286;28;20032;-82
2023/03/07 04:48:43;;;;;;;19.27;8.35;;;;;;;7.69;56.00;93099.88;5062940;28;20120;-81
2023/03/07 04:51:08;;;;;;;16.90;7.25;;;;;;;7.56;56.55;93098.97;5063975;28;20024;-83
2023/03/07 04:53:34;;;;;;;20.63;7.55;;;;;;;7.55;57.07;93100.03;5064164;28;20025;-81
2023/03/07 04:56:05;;;;;;;21.83;8.07;;;;;;;7.53;57.23;93104.88;5064048;28;20024;-81
2023/03/07 04:58:31;;;;;;;26.70;10.33;;;;;;;7.50;57.35;93108.94;5063976;28;20044;-81
2023/03/07 05:00:58;;;;;;;19.58;10.10;;;;;;;7.44;57.61;93105.66;5063754;28;20267;-81
2023/03/07 05:03:25;;;;;;;17.92;8.55;;;;;;;7.44;57.90;93100.34;5063964;28;20032;-80
2023/03/07 05:05:50;;;;;;;16.40;7.00;;;;;;;7.44;57.83;93110.97;5063977;28;20044;-80
2023/03/07 05:08:15;;;;;;;17.85;6.82;;;;;;;7.46;57.84;93109.88;5063657;28;20021;-81
2023/03/07 05:10:49;;;;;;;17.33;7.72;;;;;;;7.47;58.15;93108.78;5063298;28;20033;-80
2023/03/07 05:13:14;;;;;;;18.83;7.85;;;;;;;7.46;58.59;93096.63;5063727;28;20334;-81
2023/03/07 05:15:40;;;;;;;17.13;7.72;;;;;;;7.47;58.51;93103.47;5063476;28;20020;-80
2023/03/07 05:18:05;;;;;;;24.90;8.35;;;;;;;7.49;58.44;93110.03;5063472;28;20047;-80
2023/03/07 05:20:32;;;;;;;23.25;8.38;;;;;;;7.54;58.64;93109.09;5063272;28;20020;-79
2023/03/07 05:22:58;;;;;;;18.52;8.32;;;;;;;7.58;58.59;93104.75;5063379;28;20021;-81
2023/03/07 05:25:23;;;;;;;15.82;8.75;;;;;;;7.57;58.70;93109.28;5063335;28;20024;-79
2023/03/07 05:27:49;;;;;;;16.67;8.75;;;;;;;7.63;58.56;93123.13;5063523;28;20056;-79
2023/03/07 05:30:15;;;;;;;17.58;9.25;;;;;;;7.65;58.56;93110.34;5063256;28;20048;-81
2023/03/07 05:32:41;;;;;;;22.00;8.90;;;;;;;7.67;58.69;93116.09;5063274;28;20021;-81
2023/03/07 05:35:07;;;;;;;18.55;8.13;;;;;;;7.71;58.43;93122.34;5062951;28;20021;-81
2023/03/07 05:37:33;;;;;;;18.88;8.65;;;;;;;7.76;58.39;93114.25;5062861;28;20017;-80
2023/03/07 05:39:58;;;;;;;21.63;9.82;;;;;;;7.80;58.03;93109.88;5062760;28;20063;-80
2023/03/07 05:42:24;;;;;;;15.02;8.23;;;;;;;7.83;58.00;93121.72;5062796;28;20029;-80
2023/03/07 05:44:49;;;;;;;25.02;10.10;;;;;;;7.84;57.79;93121.41;5062761;28;20048;-80
2023/03/07 05:47:15;;;;;;;26.08;9.57;;;;;;;7.77;57.98;93120.31;5062680;28;20024;-80
2023/03/07 05:49:40;;;;;;;28.52;10.00;;;;;;;7.81;57.87;93114.06;5062606;28;20332;-80
2023/03/07 05:52:06;;;;;;;27.52;10.68;;;;;;;7.81;57.58;93121.25;5062667;28;20020;-80
2023/03/07 05:54:31;;;;;;;33.55;10.50;;;;;;;7.86;57.69;93121.13;5062528;28;20223;-80
2023/03/07 05:56:57;;;;;;;19.60;9.13;;;;;;;7.88;57.88;93136.72;5062572;28;20096;-80
2023/03/07 05:59:22;;;;;;;20.73;9.75;;;;;;;7.85;57.82;93135.47;5061471;28;20025;-80
2023/03/07 06:01:47;;;;;;;21.58;10.50;;;;;;;7.95;57.79;93131.72;5061552;28;20303;-80
2023/03/07 06:04:13;;;;;;;32.65;11.63;;;;;;;7.99;57.68;93125.47;5062385;28;20036;-81
2023/03/07 06:06:38;;;;;;;31.17;12.05;;;;;;;8.03;57.99;93131.69;5062656;28;20036;-82
2023/03/07 06:09:04;;;;;;;23.98;9.68;;;;;;;8.14;58.01;93118.91;5062448;28;20367;-79
2023/03/07 06:11:30;;;;;;;24.55;9.25;;;;;;;8.24;57.64;93131.03;5062233;28;20326;-80
2023/03/07 06:13:56;;;;;;;20.10;8.75;;;;;;;8.32;57.70;93134.78;5062142;28;20052;-80
2023/03/07 06:16:21;;;;;;;21.60;8.85;;;;;;;8.40;57.38;93128.66;5062149;28;20028;-83
2023/03/07 06:18:47;;;;;;;22.42;9.80;;;;;;;8.48;57.10;93122.56;5062869;28;20017;-82
2023/03/07 06:21:15;;;;;;;19.92;9.02;;;;;;;8.56;56.83;93142.25;5062844;28;20021;-82
2023/03/07 06:23:40;;;;;;;25.58;9.23;;;;;;;8.57;56.67;93133.97;5062479;28;20099;-79
2023/03/07 06:26:07;;;;;;;20.60;8.75;;;;;;;8.62;56.46;93130.34;5060984;28;20028;-79
2023/03/07 06:28:33;;;;;;;20.20;10.85;;;;;;;8.70;56.56;93142.03;5062165;28;20227;-80
2023/03/07 06:30:59;;;;;;;23.73;10.05;;;;;;;8.77;56.47;93144.97;5062174;28;20188;-79
2023/03/07 06:33:24;;;;;;;19.98;9.32;;;;;;;8.87;56.12;93146.50;5062388;28;20036;-78
2023/03/07 06:35:49;;;;;;;22.25;8.05;;;;;;;8.89;56.06;93139.75;5062093;28;20306;-78
2023/03/07 06:38:16;;;;;;;17.75;7.93;;;;;;;8.98;55.47;93142.41;5061773;28;20029;-82
2023/03/07 06:40:42;;;;;;;16.50;8.40;;;;;;;9.10;55.70;93144.38;5062221;28;20045;-80
2023/03/07 06:43:09;;;;;;;16.98;8.90;;;;;;;9.18;55.45;93140.88;5062251;28;20088;-80
2023/03/07 06:45:35;;;;;;;16.73;8.68;;;;;;;9.26;55.06;93145.41;5062178;28;20185;-81
2023/03/07 06:48:01;;;;;;;20.67;10.35;;;;;;;9.37;54.61;93153.78;5062163;28;20067;-84
2023/03/07 06:50:26;;;;;;;17.63;8.00;;;;;;;9.43;54.23;93145.28;5061029;28;20032;-80
2023/03/07 06:52:51;;;;;;;19.30;8.68;;;;;;;9.52;53.73;93141.78;5065981;28;20029;-80
2023/03/07 06:55:18;;;;;;;19.40;8.38;;;;;;;9.60;53.73;93152.34;5065996;28;20024;-80
2023/03/07 06:57:44;;;;;;;18.85;8.77;;;;;;;9.67;53.43;93151.06;5064888;28;20235;-80
2023/03/07 07:00:10;;;;;;;21.65;10.32;;;;;;;9.74;53.08;93152.09;5065805;28;20084;-79
2023/03/07 07:02:36;;;;;;;18.10;9.48;;;;;;;9.77;52.63;93158.66;5063988;28;20051;-79
2023/03/07 07:05:02;;;;;;;18.52;8.68;;;;;;;9.80;52.42;93160.69;5065678;28;20331;-79
2023/03/07 07:07:28;;;;;;;17.40;8.45;;;;;;;9.87;52.69;93162.81;5065703;28;20029;-79
2023/03/07 07:09:54;;;;;;;15.80;8.63;;;;;;;9.90;52.59;93159.53;5065701;28;20078;-79
2023/03/07 07:12:19;;;;;;;18.20;8.95;;;;;;;9.97;51.99;93165.88;5066130;28;20088;-79
2023/03/07 07:14:45;;;;;;;18.10;7.53;;;;;;;10.03;52.16;93159.25;5065798;28;20040;-79
2023/03/07 07:17:11;;;;;;;18.33;8.45;;;;;;;10.11;51.57;93160.28;5065519;28;20029;-79
2023/03/07 07:19:36;;;;;;;13.25;7.40;;;;;;;10.15;51.30;93155.06;5065512;28;20212;-79
2023/03/07 07:22:02;;;;;;;15.52;8.00;;;;;;;10.20;51.36;93153.00;5065463;28;20025;-79
2023/03/07 07:24:28;;;;;;;20.20;8.10;;;;;;;10.31;51.30;93152.63;5065193;28;20091;-79
2023/03/07 07:26:54;;;;;;;15.60;8.68;;;;;;;10.43;51.18;93161.41;5065648;28;20028;-75
2023/03/07 07:29:20;;;;;;;17.90;7.40;;;;;;;10.56;50.34;93159.59;5065755;28;20017;-75
2023/03/07 07:31:46;;;;;;;16.45;7.47;;;;;;;10.63;50.07;93164.38;5065407;28;20027;-76
2023/03/07 07:34:11;;;;;;;19.45;8.20;;;;;;;10.71;50.23;93155.50;5065294;28;20025;-75
2023/03/07 07:36:36;;;;;;;23.88;9.27;;;;;;;10.78;50.33;93157.63;5065102;28;20316;-75
2023/03/07 07:39:04;;;;;;;16.95;7.43;;;;;;;10.89;49.75;93166.75;5065179;28;20024;-75
2023/03/07 07:41:30;;;;;;;20.85;8.18;;;;;;;10.99;49.30;93171.66;5063514;28;20017;-75
2023/03/07 07:43:56;;;;;;;14.85;7.50;;;;;;;11.06;49.50;93167.66;5064616;28;20033;-75
2023/03/07 07:46:21;;;;;;;19.00;8.15;;;;;;;11.17;49.54;93168.75;5065112;28;20327;-75
2023/03/07 07:48:47;;;;;;;15.20;8.35;;;;;;;11.26;48.97;93174.78;5065085;28;20112;-74
2023/03/07 07:51:12;;;;;;;18.13;8.52;;;;;;;11.33;48.97;93179.56;5064898;28;20021;-67
2023/03/07 07:53:38;;;;;;;23.40;8.32;;;;;;;11.43;52.33;93187.88;5065153;28;20063;-67
2023/03/07 07:56:09;;;;;;;19.00;7.88;;;;;;;11.49;50.22;93177.75;5064996;28;20350;-67
2023/03/07 07:58:35;;;;;;;19.27;7.88;;;;;;;11.47;48.77;93181.88;5065102;28;20302;-67
2023/03/07 08:01:00;;;;;;;21.52;7.45;;;;;;;11.54;48.24;93174.09;5064677;28;20063;-67
2023/03/07 08:03:26;;;;;;;20.30;8.90;;;;;;;11.57;48.17;93173.44;5063575;28;20040;-67
2023/03/07 08:05:51;;;;;;;16.23;6.97;;;;;;;11.63;48.13;93174.75;5064877;28;20028;-66
2023/03/07 08:08:18;;;;;;;21.77;7.32;;;;;;;11.68;47.63;93168.41;5065005;28;20308;-67
2023/03/07 08:10:47;;;;;;;26.60;7.05;;;;;;;11.72;46.60;93163.94;5064765;28;20088;-67
2023/03/07 08:13:14;;;;;;;17.00;8.63;;;;;;;11.73;46.64;93168.94;5064634;28;20029;-69
2023/03/07 08:15:40;;;;;;;12.15;7.13;;;;;;;11.70;45.78;93166.94;5064589;28;20205;-68
2023/03/07 08:18:06;;;;;;;71.60;16.08;;;;;;;11.82;45.75;93166.94;5064799;28;20031;-69
2023/03/07 08:20:32;;;;;;;23.90;8.00;;;;;;;12.00;45.75;93172.03;5064856;28;20393;-69
2023/03/07 08:22:57;;;;;;;13.32;6.70;;;;;;;12.12;45.59;93161.31;5064539;28;20021;-68
2023/03/07 08:25:23;;;;;;;11.93;6.15;;;;;;;12.25;44.93;93167.38;5064486;28;20048;-69
2023/03/07 08:27:53;;;;;;;12.25;5.95;;;;;;;12.33;43.90;93163.78;5064552;28;20029;-68
2023/03/07 08:30:22;;;;;;;17.02;7.53;;;;;;;12.05;44.73;93166.47;5064614;28;20096;-69
2023/03/07 08:32:49;;;;;;;12.43;6.65;;;;;;;12.12;44.28;93158.66;5064664;28;20044;-68
2023/03/07 08:35:15;;;;;;;13.68;4.63;;;;;;;12.33;43.84;93160.34;5064526;28;20052;-68
2023/03/07 08:37:40;;;;;;;12.25;5.75;;;;;;;12.48;43.17;93166.88;5064295;28;20025;-68
2023/03/07 08:40:06;;;;;;;15.55;5.55;;;;;;;12.39;43.43;93169.69;5064640;28;20088;-68
2023/03/07 08:42:32;;;;;;;12.00;5.40;;;;;;;12.49;41.63;93158.50;5064592;28;20020;-68
2023/03/07 08:44:57;;;;;;;14.25;4.70;;;;;;;12.58;41.73;93167.16;5063456;28;20020;-68
2023/03/07 08:47:23;;;;;;;9.77;4.85;;;;;;;12.64;42.00;93171.13;5064027;28;20051;-68
2023/03/07 08:49:48;;;;;;;9.40;4.57;;;;;;;12.58;42.05;93158.34;5064646;28;20017;-68
2023/03/07 08:52:14;;;;;;;13.45;5.32;;;;;;;12.67;42.46;93158.19;5064332;28;20035;-68
2023/03/07 08:54:39;;;;;;;12.18;5.50;;;;;;;12.79;42.61;93164.25;5064323;28;20036;-68
2023/03/07 08:57:04;;;;;;;9.50;5.45;;;;;;;12.87;42.18;93165.19;5064088;28;20532;-68
2023/03/07 08:59:30;;;;;;;14.90;6.47;;;;;;;12.92;42.24;93164.16;5064179;28;20053;-68
2023/03/07 09:01:56;;;;;;;17.65;5.85;;;;;;;12.85;42.76;93160.19;5064308;28;20029;-69
2023/03/07 09:04:22;;;;;;;13.35;6.47;;;;;;;12.67;44.24;93152.84;5064138;28;20025;-68
2023/03/07 09:06:47;;;;;;;18.63;6.10;;;;;;;12.79;43.20;93166.13;5064334;28;20063;-68
2023/03/07 09:09:13;;;;;;;11.00;5.43;;;;;;;12.79;41.41;93161.56;5063867;28;20060;-69
2023/03/07 09:11:38;;;;;;;22.83;5.75;;;;;;;12.65;42.43;93156.63;5063959;28;20032;-68
2023/03/07 09:14:03;;;;;;;18.80;6.68;;;;;;;12.61;42.82;93146.97;5063648;28;20029;-67
2023/03/07 09:16:29;;;;;;;18.58;6.60;;;;;;;12.61;42.60;93149.63;5063947;28;20020;-67
2023/03/07 09:18:54;;;;;;;15.40;6.28;;;;;;;12.75;42.87;93135.88;5063879;28;20028;-67
2023/03/07 09:21:20;;;;;;;13.80;6.45;;;;;;;12.69;42.40;93155.94;5063885;28;20334;-68
2023/03/07 09:23:45;;;;;;;27.17;5.97;;;;;;;12.80;41.80;93152.44;5063628;28;20055;-69
2023/03/07 09:26:10;;;;;;;13.20;4.88;;;;;;;12.80;41.43;93140.94;5063629;28;20068;-68
2023/03/07 09:28:36;;;;;;;21.48;5.90;;;;;;;12.89;41.38;93143.47;5063791;28;20036;-68
2023/03/07 09:31:10;;;;;;;17.17;5.28;;;;;;;12.97;41.47;93140.63;5063389;28;20029;-68
2023/03/07 09:33:36;;;;;;;10.25;5.68;;;;;;;12.87;41.43;93145.72;5063464;28;20032;-68
2023/03/07 09:36:06;;;;;;;15.57;5.95;;;;;;;13.01;40.92;93140.72;5063433;28;20021;-67
2023/03/07 09:38:31;;;;;;;12.30;5.03;;;;;;;13.15;40.78;93130.34;5063314;28;20224;-68
2023/03/07 09:41:23;;;;;;;16.33;6.82;;;;;;;13.24;40.45;93138.97;5063295;28;20017;-68
2023/03/07 09:43:59;;;;;;;12.23;4.82;;;;;;;13.39;39.06;93133.97;5052373;28;20037;-68
2023/03/07 09:46:28;;;;;;;12.18;5.15;;;;;;;13.44;38.84;93131.81;5063155;28;20032;-69
2023/03/07 09:49:18;;;;;;;23.85;6.05;;;;;;;13.24;39.28;93135.50;5063059;28;20074;-68
2023/03/07 09:51:45;;;;;;;10.45;5.47;;;;;;;13.13;39.44;93127.25;5062980;28;20021;-68
2023/03/07 09:54:16;;;;;;;15.52;5.28;;;;;;;13.11;39.79;93121.47;5062861;28;20064;-69
2023/03/07 09:56:45;;;;;;;9.57;5.25;;;;;;;13.20;39.53;93126.63;5063008;28;20028;-69
2023/03/07 09:59:23;;;;;;;15.25;4.88;;;;;;;13.08;39.51;93124.03;5063116;28;20047;-69
2023/03/07 10:02:03;;;;;;;9.48;4.57;;;;;;;13.15;39.61;93116.19;5062930;28;20089;-68
2023/03/07 10:05:18;;;;;;;15.65;5.18;;;;;;;13.34;39.98;93104.81;5062756;28;20029;-68
2023/03/07 10:07:43;;;;;;;10.57;5.22;;;;;;;13.45;39.02;93097.78;5030095;28;20060;-69
2023/03/07 10:10:39;;;;;;;7.45;3.58;;;;;;;13.59;39.39;93100.75;5062969;28;20053;-68
2023/03/07 10:13:11;;;;;;;12.45;4.25;;;;;;;13.75;38.71;93090.00;5061553;28;20048;-69
2023/03/07 10:16:08;;;;;;;17.00;5.00;;;;;;;13.57;38.54;93083.50;5062566;28;20048;-69
2023/03/07 10:19:01;;;;;;;11.15;4.25;;;;;;;13.62;38.39;93093.94;5043999;28;20044;-68
2023/03/07 10:21:49;;;;;;;13.45;4.00;;;;;;;13.81;37.53;93091.28;5062606;28;20024;-70
2023/03/07 10:24:30;;;;;;;17.30;4.65;;;;;;;13.91;37.20;93089.19;5062754;28;20024;-68
2023/03/07 10:27:04;;;;;;;11.20;3.67;;;;;;;14.02;37.27;93084.78;5061847;28;20060;-69
2023/03/07 10:29:46;;;;;;;8.55;3.78;;;;;;;14.17;37.22;93080.50;5062744;28;20055;-68
2023/03/07 10:32:14;;;;;;;;;;;;;;;14.34;36.13;93082.72;5062969;28;20314;-69
2023/03/07 10:34:40;;;;;;;7.45;3.03;;;;;;;14.48;36.14;93079.53;5062813;28;19946;-68
2023/03/07 10:37:17;;;;;;;12.45;4.20;;;;;;;14.59;35.08;93067.13;5062740;28;20029;-68
2023/03/07 10:39:53;;;;;;;11.82;3.90;;;;;;;14.62;35.15;93074.44;5062661;28;20143;-68
2023/03/07 10:42:32;;;;;;;6.72;2.95;;;;;;;14.71;34.18;93065.38;5062693;28;20024;-68
2023/03/07 10:44:57;;;;;;;13.68;3.35;;;;;;;14.68;34.72;93066.13;5062740;28;20071;-68
2023/03/07 10:47:26;;;;;;;9.23;3.20;;;;;;;14.61;34.12;93054.13;5062264;28;20016;-70
2023/03/07 10:50:26;;;;;;;15.50;3.28;;;;;;;14.61;33.97;93056.03;5062325;28;20020;-69
2023/03/07 10:52:56;;;;;;;10.65;2.70;;;;;;;14.61;32.98;93046.09;5061804;28;20021;-70
2023/03/07 10:55:33;;;;;;;5.13;2.47;;;;;;;14.52;33.45;93042.81;5060571;28;20063;-68
2023/03/07 10:58:14;;;;;;;5.55;2.10;;;;;;;14.56;33.85;93038.31;5061295;28;20274;-68
2023/03/07 11:00:41;;;;;;;12.15;2.88;;;;;;;14.73;33.54;93041.66;5062025;28;20021;-68
2023/03/07 11:03:30;;;;;;;10.82;2.13;;;;;;;14.93;33.83;93028.94;5061561;28;20021;-69
2023/03/07 11:05:56;;;;;;;8.48;2.78;;;;;;;15.07;33.09;93010.38;5061606;28;20028;-69
2023/03/07 11:08:31;;;;;;;6.00;1.88;;;;;;;15.12;32.21;93015.44;5062387;28;20242;-68
2023/03/07 11:10:59;;;;;;;3.53;1.83;;;;;;;15.12;31.26;93006.59;5060581;28;20231;-68
2023/03/07 11:13:26;;;;;;;3.25;1.52;;;;;;;14.95;30.94;92999.84;5060361;28;20052;-68
2023/03/07 11:16:08;;;;;;;4.20;1.58;;;;;;;14.90;31.36;92998.25;5060582;28;20166;-69
2023/03/07 11:18:41;;;;;;;5.15;1.48;;;;;;;14.83;31.29;93003.50;5060807;28;20025;-68
2023/03/07 11:21:27;;;;;;;6.18;1.80;;;;;;;14.52;32.51;92986.53;5061109;28;20075;-68
2023/03/07 11:24:03;;;;;;;2.75;1.30;;;;;;;14.51;29.94;92982.31;5061350;28;20321;-69
2023/03/07 11:26:35;;;;;;;4.35;1.70;;;;;;;14.53;31.36;92985.41;5062224;28;20074;-68
2023/03/07 11:29:09;;;;;;;5.85;1.63;;;;;;;14.65;31.18;92981.75;5062333;28;20040;-68
2023/03/07 11:31:35;;;;;;;3.42;1.40;;;;;;;14.60;30.69;92982.06;5061917;28;20327;-69
2023/03/07 11:34:14;;;;;;;7.43;1.63;;;;;;;14.38;30.53;92967.53;5061989;28;20089;-71
2023/03/07 11:36:43;;;;;;;5.53;1.50;;;;;;;14.43;31.09;92975.25;5062146;28;20025;-69